Gorham, North Dakota
Current Conditions -  °F | °C
As of 1:56 AM on Sunday 26 Oct 2014 (Local Time) from KDIK Reporting Station
Clear Clear  
Wind Chill: 50°   Ceiling: Unl
Heat Index: 50°   Visibility: 10mi
Dew Point: 31°   Wind: 24mph
Humidity: 48%   Direction: 160°SSE
Pressure: 29.64"   Gusts: 29mph
Location:  47.131°N, 103.355°W
Report Text: KDIK 260756Z AUTO 16021G25KT 10SM CLR 10/M01 A2964 RMK AO2 PK WND 15032/0723 SLP034 T01001006
Loading
Personal Weather Stations






























Interactive Weather Map
Tropical Storm Tracking
New forecast layout! Learn more

10-Day Weather Forecast

Advertisements
Track Severe Weather on mobile